Time;durP1;ratioP1;P1;durP2;ratioP2;P2;SDS_P1;SDS_P2;PMS_P1;PMS_P2;Temp;Humidity;BMP_temperature;BMP_pressure;BME280_temperature;BME280_humidity;BME280_pressure;Samples;Min_cycle;Max_cycle;Signal;HPM_P1;HPM_P2
2022/08/13 06:18:30;;;;;;;3.35;2.85;;;22.10;91.10;;;;;;6226165;28;88890;-63
2022/08/13 06:21:32;;;;;;;3.38;2.70;;;22.00;91.20;;;;;;6227363;28;89119;-63
2022/08/13 06:24:37;;;;;;;6.30;3.90;;;22.10;91.30;;;;;;6226490;28;89082;-64
2022/08/13 06:27:39;;;;;;;4.13;2.92;;;22.00;91.80;;;;;;6229640;28;89016;-64
2022/08/13 06:30:44;;;;;;;3.08;2.78;;;22.00;91.40;;;;;;6222230;28;87968;-64
2022/08/13 06:33:48;;;;;;;3.30;2.80;;;22.10;91.40;;;;;;6228821;28;89070;-64
2022/08/13 06:36:51;;;;;;;3.05;2.67;;;22.00;91.50;;;;;;6230794;28;89028;-64
2022/08/13 06:39:54;;;;;;;4.53;2.88;;;22.10;91.70;;;;;;6230823;28;88449;-64
2022/08/13 06:42:58;;;;;;;2.85;2.50;;;22.00;91.70;;;;;;6231049;28;88897;-64
2022/08/13 06:46:03;;;;;;;4.03;2.92;;;22.10;91.80;;;;;;6230497;28;89074;-64
2022/08/13 06:49:06;;;;;;;2.97;2.55;;;22.10;91.90;;;;;;6238080;28;90168;-63
2022/08/13 06:52:08;;;;;;;2.97;2.60;;;22.00;92.10;;;;;;6217690;28;89095;-63
2022/08/13 06:55:10;;;;;;;3.22;2.92;;;22.00;92.20;;;;;;6231238;28;89255;-64
2022/08/13 06:58:12;;;;;;;3.55;2.70;;;22.10;92.50;;;;;;6229173;28;88960;-64
2022/08/13 07:01:17;;;;;;;3.00;2.70;;;22.00;92.60;;;;;;6230333;28;89081;-64
2022/08/13 07:04:21;;;;;;;3.83;2.88;;;22.10;92.80;;;;;;6230100;28;88735;-64
2022/08/13 07:07:24;;;;;;;3.45;2.70;;;22.10;93.10;;;;;;6225314;28;88492;-63
2022/08/13 07:10:27;;;;;;;4.53;2.72;;;22.10;93.60;;;;;;6228300;28;88095;-65
2022/08/13 07:13:28;;;;;;;4.10;2.80;;;22.10;93.60;;;;;;6230590;28;89143;-65
2022/08/13 07:16:33;;;;;;;3.17;2.42;;;22.10;93.50;;;;;;6230592;28;89043;-65
2022/08/13 07:19:37;;;;;;;3.15;2.55;;;22.10;93.40;;;;;;6229970;28;88897;-66
2022/08/13 07:22:39;;;;;;;3.15;2.83;;;22.20;93.20;;;;;;6220865;28;88819;-65
2022/08/13 07:25:43;;;;;;;3.65;2.65;;;22.20;93.10;;;;;;6230493;28;87930;-66
2022/08/13 07:28:45;;;;;;;3.58;2.63;;;22.20;92.90;;;;;;6230017;28;89470;-65
2022/08/13 07:31:47;;;;;;;2.70;2.50;;;22.20;92.90;;;;;;6230066;28;87882;-65
2022/08/13 07:34:52;;;;;;;3.67;2.63;;;22.20;93.30;;;;;;6227160;28;87980;-65
2022/08/13 07:37:54;;;;;;;4.47;2.67;;;22.20;92.80;;;;;;6230322;28;89045;-65
2022/08/13 07:40:58;;;;;;;4.00;2.80;;;22.20;92.80;;;;;;6231205;28;88660;-65
2022/08/13 07:44:02;;;;;;;3.08;2.60;;;22.20;92.80;;;;;;6234519;28;89208;-65
2022/08/13 07:47:07;;;;;;;3.38;2.70;;;22.20;92.80;;;;;;6234304;28;87881;-66
2022/08/13 07:50:15;;;;;;;3.42;2.60;;;22.20;92.70;;;;;;6233183;28;88649;-65
2022/08/13 07:53:18;;;;;;;2.78;2.50;;;22.20;92.70;;;;;;6234817;28;90536;-65
2022/08/13 07:56:21;;;;;;;3.13;2.50;;;22.20;92.60;;;;;;6234163;28;89036;-66
2022/08/13 07:59:23;;;;;;;2.72;2.53;;;22.20;92.60;;;;;;6232551;28;89202;-65
2022/08/13 08:02:26;;;;;;;3.08;2.78;;;22.20;92.50;;;;;;6233752;28;89473;-65
2022/08/13 08:05:31;;;;;;;2.78;2.50;;;22.20;92.50;;;;;;6233761;28;89797;-65
2022/08/13 08:08:34;;;;;;;3.83;2.85;;;22.20;92.70;;;;;;6232937;28;89094;-65
2022/08/13 08:14:59;;;;;;;3.63;2.72;;;22.30;92.50;;;;;;6230479;28;89093;-65
2022/08/13 08:18:01;;;;;;;3.47;2.40;;;22.20;92.20;;;;;;6233014;28;89047;-65
2022/08/13 08:21:10;;;;;;;3.00;2.58;;;22.20;92.10;;;;;;6224615;28;89874;-65
2022/08/13 08:24:14;;;;;;;2.70;2.50;;;22.20;92.10;;;;;;6230517;28;88344;-66
2022/08/13 08:27:17;;;;;;;2.63;2.42;;;22.20;92.20;;;;;;6233305;28;89469;-66
2022/08/13 08:30:21;;;;;;;2.60;2.40;;;22.20;92.20;;;;;;6233067;28;89018;-65
2022/08/13 08:33:27;;;;;;;3.10;2.78;;;22.20;92.20;;;;;;6230044;28;89118;-66
2022/08/13 08:36:30;;;;;;;3.10;2.50;;;22.20;92.30;;;;;;6233710;28;89261;-65
2022/08/13 08:42:54;;;;;;;2.60;2.40;;;22.30;92.40;;;;;;6233600;28;86606;-65
2022/08/13 08:45:57;;;;;;;4.07;2.95;;;22.20;92.40;;;;;;6234024;28;89080;-65
2022/08/13 08:49:01;;;;;;;2.97;2.67;;;22.20;92.80;;;;;;6233651;28;89093;-65
2022/08/13 08:52:05;;;;;;;5.88;3.05;;;22.20;93.00;;;;;;6227457;28;89954;-66
2022/08/13 08:55:10;;;;;;;6.00;3.00;;;22.20;93.20;;;;;;6226382;28;89112;-64
2022/08/13 08:58:13;;;;;;;5.68;2.92;;;22.20;94.80;;;;;;6233111;28;89203;-65
2022/08/13 09:01:16;;;;;;;5.78;3.03;;;22.30;96.40;;;;;;6233346;28;89053;-64
2022/08/13 09:04:20;;;;;;;126.68;95.50;;;22.30;95.90;;;;;;6232829;28;89271;-64
2022/08/13 09:07:24;;;;;;;352.73;207.57;;;22.30;99.90;;;;;;6232590;28;89140;-64
2022/08/13 09:10:26;;;;;;;259.55;153.30;;;22.40;99.90;;;;;;6231221;28;89074;-64
2022/08/13 09:13:29;;;;;;;72.60;43.72;;;22.50;99.90;;;;;;6226685;28;88305;-63
2022/08/13 09:16:32;;;;;;;46.83;30.77;;;22.50;99.90;;;;;;6231781;28;90433;-63
2022/08/13 09:19:34;;;;;;;33.60;21.88;;;22.60;99.00;;;;;;6232330;28;89182;-63
2022/08/13 09:22:40;;;;;;;26.45;16.35;;;22.60;98.40;;;;;;6230842;28;90037;-63
2022/08/13 09:25:48;;;;;;;22.55;14.23;;;22.70;97.70;;;;;;6219600;28;89053;-63
2022/08/13 09:28:56;;;;;;;19.25;12.68;;;22.70;99.90;;;;;;6231159;28;89054;-62
2022/08/13 09:31:58;;;;;;;19.17;12.57;;;22.70;98.10;;;;;;6231714;28;87913;-63
2022/08/13 09:35:01;;;;;;;16.45;11.00;;;22.70;97.60;;;;;;6222310;28;89412;-63
2022/08/13 09:38:06;;;;;;;16.80;11.13;;;22.70;97.10;;;;;;6227077;28;89135;-63
2022/08/13 09:41:18;;;;;;;16.92;10.98;;;22.70;97.10;;;;;;6226706;28;89004;-63
2022/08/13 09:44:20;;;;;;;15.32;9.43;;;22.70;97.20;;;;;;6231395;28;88451;-62
2022/08/13 09:47:22;;;;;;;13.50;8.35;;;22.70;96.90;;;;;;6232223;28;89440;-63
2022/08/13 09:50:25;;;;;;;14.82;8.95;;;22.60;96.60;;;;;;6231765;28;88902;-63
2022/08/13 09:53:29;;;;;;;15.75;9.23;;;22.60;96.70;;;;;;6234377;28;90062;-62
2022/08/13 09:56:32;;;;;;;15.85;8.80;;;22.60;97.60;;;;;;6231653;28;88993;-62
2022/08/13 09:59:34;;;;;;;12.45;8.02;;;22.60;97.80;;;;;;6224275;28;89076;-63
2022/08/13 10:02:36;;;;;;;13.45;8.00;;;22.60;98.40;;;;;;6230987;28;89036;-63
2022/08/13 10:05:38;;;;;;;15.25;8.63;;;22.60;98.40;;;;;;6230900;28;89010;-63
2022/08/13 10:08:41;;;;;;;12.27;7.93;;;22.60;99.10;;;;;;6232525;28;89028;-63
2022/08/13 10:11:43;;;;;;;11.13;6.97;;;22.60;99.10;;;;;;6232155;28;89538;-63
2022/08/13 10:14:46;;;;;;;14.32;7.07;;;22.60;99.10;;;;;;6232293;28;88244;-62
2022/08/13 10:17:49;;;;;;;11.07;7.20;;;22.50;98.80;;;;;;6232095;28;88862;-63
2022/08/13 10:20:52;;;;;;;12.35;7.13;;;22.60;98.80;;;;;;6231231;28;89046;-63
2022/08/13 10:23:55;;;;;;;11.68;6.93;;;22.60;98.70;;;;;;6222776;28;90031;-63
2022/08/13 10:26:57;;;;;;;12.57;7.10;;;22.60;99.00;;;;;;6231280;28;89050;-63
2022/08/13 10:29:59;;;;;;;10.30;6.60;;;22.60;99.00;;;;;;6231438;28;89194;-63
2022/08/13 10:33:01;;;;;;;12.85;6.90;;;22.60;99.20;;;;;;6230391;28;89084;-63
2022/08/13 10:36:05;;;;;;;11.13;6.40;;;22.60;99.10;;;;;;6230994;28;89025;-63
2022/08/13 10:39:08;;;;;;;13.02;6.88;;;22.60;98.70;;;;;;6220598;28;89151;-63
2022/08/13 10:42:11;;;;;;;10.25;5.85;;;22.60;99.00;;;;;;6231190;28;88969;-63
2022/08/13 10:45:14;;;;;;;10.70;6.20;;;22.60;99.00;;;;;;6231903;28;88037;-63
2022/08/13 10:48:17;;;;;;;9.25;5.95;;;22.60;98.80;;;;;;6231431;28;89477;-63
2022/08/13 10:51:19;;;;;;;8.95;6.10;;;22.60;98.90;;;;;;6230414;28;87933;-63
2022/08/13 10:54:25;;;;;;;8.15;5.85;;;22.60;98.70;;;;;;6230103;28;89970;-63
2022/08/13 10:57:27;;;;;;;8.32;5.90;;;22.60;98.60;;;;;;6228607;28;89198;-64
2022/08/13 11:00:28;;;;;;;9.70;5.72;;;22.60;98.90;;;;;;6222251;28;89203;-64
2022/08/13 11:03:31;;;;;;;9.70;5.40;;;22.50;99.10;;;;;;6230306;28;89043;-63
2022/08/13 11:06:36;;;;;;;8.07;5.35;;;22.60;99.20;;;;;;6231248;28;89109;-64
2022/08/13 11:09:39;;;;;;;8.65;5.63;;;22.60;98.90;;;;;;6230928;28;89148;-63
2022/08/13 11:12:50;;;;;;;8.63;5.35;;;22.60;98.00;;;;;;6229922;28;89084;-63
2022/08/13 11:15:52;;;;;;;7.95;5.60;;;22.60;97.90;;;;;;6230194;28;87623;-64
2022/08/13 11:18:55;;;;;;;8.63;5.05;;;22.60;98.00;;;;;;6229640;28;89139;-64
2022/08/13 11:21:57;;;;;;;6.82;4.80;;;22.60;98.00;;;;;;6236027;28;89761;-64
2022/08/13 11:25:03;;;;;;;6.72;4.80;;;22.60;97.60;;;;;;6226894;28;90474;-64
2022/08/13 11:28:12;;;;;;;7.40;5.07;;;22.60;97.40;;;;;;6221355;28;91003;-64
2022/08/13 11:31:14;;;;;;;7.65;5.05;;;22.60;97.30;;;;;;6229340;28;89069;-64
2022/08/13 11:34:16;;;;;;;11.57;4.90;;;22.60;97.00;;;;;;6231634;28;89039;-64
2022/08/13 11:37:18;;;;;;;6.35;4.70;;;22.60;97.10;;;;;;6230855;28;89274;-64
2022/08/13 11:40:21;;;;;;;6.45;4.82;;;22.60;97.10;;;;;;6230295;28;89146;-64
2022/08/13 11:43:24;;;;;;;10.80;5.18;;;22.60;96.80;;;;;;6230672;28;89666;-64
2022/08/13 11:46:27;;;;;;;5.78;4.90;;;22.60;96.60;;;;;;6229692;28;88315;-64
2022/08/13 11:49:29;;;;;;;5.32;4.47;;;22.60;96.50;;;;;;6230085;28;89039;-63
2022/08/13 11:52:31;;;;;;;5.78;4.32;;;22.60;96.30;;;;;;6230079;28;89371;-64
2022/08/13 11:55:35;;;;;;;6.93;4.80;;;22.60;96.20;;;;;;6229333;28;90494;-64
2022/08/13 11:58:37;;;;;;;6.03;4.63;;;22.60;96.20;;;;;;6229949;28;89148;-63
2022/08/13 12:01:39;;;;;;;8.23;4.88;;;22.60;96.20;;;;;;6230436;28;89070;-63
2022/08/13 12:04:41;;;;;;;5.90;4.38;;;22.60;96.20;;;;;;6229927;28;89512;-63
2022/08/13 12:07:43;;;;;;;4.97;4.47;;;22.60;96.10;;;;;;6229572;28;88918;-64
2022/08/13 12:10:47;;;;;;;6.90;4.72;;;22.60;96.00;;;;;;6229489;28;89119;-64
2022/08/13 12:13:49;;;;;;;7.13;4.47;;;22.60;96.00;;;;;;6229812;28;89114;-63
2022/08/13 12:16:51;;;;;;;4.90;4.35;;;22.60;96.00;;;;;;6229318;28;88367;-63
2022/08/13 12:19:53;;;;;;;7.20;4.57;;;22.60;95.90;;;;;;6226916;28;89135;-64
2022/08/13 12:22:57;;;;;;;5.53;4.65;;;22.60;96.00;;;;;;6229346;28;89064;-64
2022/08/13 12:26:00;;;;;;;6.22;4.60;;;22.60;96.10;;;;;;6227523;28;89799;-64
2022/08/13 12:29:02;;;;;;;5.22;4.28;;;22.50;96.10;;;;;;6232911;28;88979;-64
2022/08/13 12:32:04;;;;;;;6.97;4.35;;;22.50;96.20;;;;;;6233827;28;89405;-64
2022/08/13 12:35:08;;;;;;;5.63;4.20;;;22.60;96.10;;;;;;6232794;28;89042;-64
2022/08/13 12:38:11;;;;;;;4.38;3.95;;;22.60;96.00;;;;;;6233767;28;88355;-64
2022/08/13 12:41:15;;;;;;;5.85;4.40;;;22.60;96.00;;;;;;6234186;28;89049;-64
2022/08/13 12:44:16;;;;;;;5.38;4.47;;;22.60;95.80;;;;;;6233759;28;89128;-64
2022/08/13 12:47:19;;;;;;;6.25;4.50;;;22.60;95.70;;;;;;6233855;28;88277;-64
2022/08/13 12:50:21;;;;;;;4.70;3.88;;;22.60;95.60;;;;;;6246125;28;89593;-64
2022/08/13 12:53:23;;;;;;;5.22;4.03;;;22.60;95.60;;;;;;6232831;28;89073;-64
2022/08/13 12:56:26;;;;;;;4.80;4.30;;;22.60;95.60;;;;;;6232519;28;88829;-64
2022/08/13 12:59:28;;;;;;;6.00;4.50;;;22.60;95.60;;;;;;6233045;28;89030;-64
2022/08/13 13:02:30;;;;;;;4.85;4.05;;;22.60;95.60;;;;;;6232985;28;89048;-64
2022/08/13 13:05:32;;;;;;;5.05;4.35;;;22.60;95.60;;;;;;6232532;28;89090;-64
2022/08/13 13:08:34;;;;;;;5.38;4.40;;;22.60;95.60;;;;;;6233251;28;89443;-64
2022/08/13 13:11:39;;;;;;;4.70;4.00;;;22.60;95.80;;;;;;6222104;28;89093;-64
2022/08/13 13:14:41;;;;;;;4.85;4.15;;;22.60;95.80;;;;;;6232397;28;89015;-64
2022/08/13 13:17:43;;;;;;;4.72;4.10;;;22.60;95.80;;;;;;6230848;28;88510;-64
2022/08/13 13:20:47;;;;;;;4.63;4.13;;;22.60;95.80;;;;;;6240968;28;89121;-64
2022/08/13 13:23:48;;;;;;;4.55;4.00;;;22.60;95.80;;;;;;6228911;28;88215;-64
2022/08/13 13:26:54;;;;;;;5.40;3.92;;;22.60;95.70;;;;;;6231853;28;90353;-64
2022/08/13 13:29:56;;;;;;;4.35;3.88;;;22.60;95.60;;;;;;6233251;28;89231;-64
2022/08/13 13:32:58;;;;;;;4.18;3.78;;;22.60;95.50;;;;;;6232178;28;89790;-64
2022/08/13 13:36:00;;;;;;;4.10;3.70;;;22.60;95.40;;;;;;6232593;28;89516;-64
2022/08/13 13:39:02;;;;;;;4.82;4.03;;;22.60;95.30;;;;;;6232756;28;89077;-64
2022/08/13 13:42:06;;;;;;;5.03;3.72;;;22.60;95.30;;;;;;6232091;28;89078;-64
2022/08/13 13:45:09;;;;;;;3.92;3.53;;;22.60;95.30;;;;;;6232424;28;89085;-64
2022/08/13 13:48:19;;;;;;;4.18;3.80;;;22.60;95.30;;;;;;6232484;28;88665;-65
2022/08/13 13:51:21;;;;;;;5.03;4.03;;;22.60;95.20;;;;;;6232375;28;89234;-64
2022/08/13 13:54:23;;;;;;;4.95;4.10;;;22.60;95.10;;;;;;6231110;28;87860;-64
2022/08/13 13:57:26;;;;;;;4.70;4.20;;;22.60;95.10;;;;;;6232235;28;90188;-64
2022/08/13 14:00:30;;;;;;;4.30;3.67;;;22.60;95.10;;;;;;6231631;28;89058;-65
2022/08/13 14:03:32;;;;;;;5.28;3.85;;;22.60;95.20;;;;;;6231437;28;89551;-64
2022/08/13 14:06:34;;;;;;;4.57;3.70;;;22.60;95.20;;;;;;6233065;28;89033;-64
2022/08/13 14:09:37;;;;;;;4.47;3.70;;;22.60;95.20;;;;;;6231817;28;88999;-64
2022/08/13 14:12:40;;;;;;;4.57;3.78;;;22.60;95.20;;;;;;6231510;28;88999;-64
2022/08/13 14:15:42;;;;;;;4.28;3.70;;;22.60;95.20;;;;;;6230515;28;87683;-64
2022/08/13 14:18:45;;;;;;;4.63;4.05;;;22.60;95.10;;;;;;6232100;28;88331;-64
2022/08/13 14:21:51;;;;;;;4.70;3.80;;;22.60;95.00;;;;;;6221911;28;89036;-64
2022/08/13 14:24:54;;;;;;;4.25;3.85;;;22.60;94.90;;;;;;6227654;28;89048;-64
2022/08/13 14:27:58;;;;;;;4.30;3.90;;;22.60;94.90;;;;;;6231463;28;90111;-64
2022/08/13 14:31:01;;;;;;;4.57;3.97;;;22.60;94.80;;;;;;6231072;28;89176;-65
2022/08/13 14:34:03;;;;;;;3.90;3.50;;;22.60;94.80;;;;;;6230829;28;88988;-64
2022/08/13 14:37:05;;;;;;;4.45;3.40;;;22.60;94.80;;;;;;6231492;28;89085;-64
2022/08/13 14:40:10;;;;;;;4.20;3.80;;;22.60;94.80;;;;;;6231807;28;89090;-64
2022/08/13 14:43:13;;;;;;;4.20;3.80;;;22.60;94.70;;;;;;6231099;28;89131;-64
2022/08/13 14:46:17;;;;;;;4.28;3.88;;;22.60;94.70;;;;;;6230778;28;89539;-64
2022/08/13 14:49:20;;;;;;;3.60;3.30;;;22.60;94.60;;;;;;6231767;28;88248;-65
2022/08/13 14:52:23;;;;;;;4.60;3.67;;;22.60;94.60;;;;;;6229094;28;89422;-65
2022/08/13 14:55:29;;;;;;;3.75;3.45;;;22.60;94.70;;;;;;6231510;28;89104;-64
2022/08/13 14:58:33;;;;;;;3.95;3.50;;;22.60;94.70;;;;;;6230552;28;88880;-65
2022/08/13 15:01:35;;;;;;;3.65;3.35;;;22.70;94.70;;;;;;6230950;28;88899;-64
2022/08/13 15:04:37;;;;;;;4.28;3.70;;;22.60;94.70;;;;;;6229603;28;89078;-64
2022/08/13 15:07:43;;;;;;;4.18;3.72;;;22.70;94.70;;;;;;6231465;28;89046;-64
2022/08/13 15:10:49;;;;;;;4.00;3.30;;;22.70;94.60;;;;;;6229822;28;88453;-64
2022/08/13 15:13:54;;;;;;;3.92;3.53;;;22.70;94.60;;;;;;6230182;28;89038;-64
2022/08/13 15:17:01;;;;;;;3.80;3.50;;;22.60;94.40;;;;;;6229999;28;87901;-64
2022/08/13 15:20:06;;;;;;;4.82;3.80;;;22.70;94.40;;;;;;6221930;28;88304;-64
2022/08/13 15:23:09;;;;;;;4.70;3.50;;;22.70;94.40;;;;;;6230605;28;89229;-64
2022/08/13 15:26:11;;;;;;;3.65;3.35;;;22.70;94.40;;;;;;6230236;28;89004;-64
2022/08/13 15:29:15;;;;;;;4.05;3.67;;;22.70;94.40;;;;;;6230851;28;89677;-64
2022/08/13 15:32:17;;;;;;;3.85;3.40;;;22.70;94.40;;;;;;6229354;28;90750;-65
2022/08/13 15:35:20;;;;;;;3.80;3.50;;;22.60;94.40;;;;;;6229685;28;89050;-64
2022/08/13 15:38:24;;;;;;;3.92;3.42;;;22.60;94.40;;;;;;6230098;28;89195;-64
2022/08/13 15:41:26;;;;;;;3.45;3.13;;;22.70;94.40;;;;;;6217677;28;88988;-64
2022/08/13 15:44:29;;;;;;;4.13;3.53;;;22.60;94.40;;;;;;6230783;28;89059;-64
2022/08/13 15:47:33;;;;;;;4.05;3.65;;;22.70;94.40;;;;;;6230263;28;89057;-64
2022/08/13 15:50:38;;;;;;;4.07;3.60;;;22.70;94.40;;;;;;6230551;28;88599;-64
2022/08/13 15:53:40;;;;;;;3.78;3.47;;;22.60;94.40;;;;;;6230775;28;88001;-64
2022/08/13 15:56:42;;;;;;;3.55;3.25;;;22.70;94.40;;;;;;6228310;28;89070;-65
2022/08/13 15:59:45;;;;;;;3.78;3.47;;;22.70;94.30;;;;;;6229049;28;88895;-65
2022/08/13 16:02:49;;;;;;;4.28;3.65;;;22.70;94.20;;;;;;6230348;28;88801;-64
2022/08/13 16:05:51;;;;;;;3.65;3.30;;;22.70;94.20;;;;;;6233583;28;89028;-64
2022/08/13 16:08:53;;;;;;;3.60;3.30;;;22.70;94.20;;;;;;6232793;28;89277;-64
2022/08/13 16:11:56;;;;;;;3.67;3.38;;;22.70;94.10;;;;;;6244340;28;89084;-65
2022/08/13 16:15:01;;;;;;;3.63;3.30;;;22.70;94.10;;;;;;6234818;28;90487;-65
2022/08/13 16:18:06;;;;;;;4.00;3.60;;;22.70;94.20;;;;;;6234236;28;89094;-64
2022/08/13 16:21:08;;;;;;;3.40;3.10;;;22.70;94.00;;;;;;6234895;28;88272;-65
2022/08/13 16:24:10;;;;;;;3.90;3.47;;;22.70;94.00;;;;;;6228265;28;89077;-64
2022/08/13 16:27:13;;;;;;;3.85;3.55;;;22.70;94.00;;;;;;6232096;28;89117;-64
2022/08/13 16:30:17;;;;;;;3.65;3.35;;;22.70;94.00;;;;;;6233395;28;90172;-64
2022/08/13 16:33:19;;;;;;;3.75;3.30;;;22.70;94.10;;;;;;6233253;28;88488;-64
2022/08/13 16:36:22;;;;;;;3.60;3.30;;;22.70;94.10;;;;;;6232789;28;87889;-64
2022/08/13 16:39:24;;;;;;;3.78;3.47;;;22.70;94.10;;;;;;6233178;28;89219;-64
2022/08/13 16:42:27;;;;;;;3.40;3.10;;;22.70;94.10;;;;;;6233600;28;89262;-64
2022/08/13 16:45:31;;;;;;;4.00;3.50;;;22.70;94.00;;;;;;6234029;28;87986;-66
2022/08/13 16:48:33;;;;;;;3.40;3.10;;;22.70;94.00;;;;;;6233781;28;89987;-64
2022/08/13 16:51:36;;;;;;;3.70;3.40;;;22.70;94.10;;;;;;6233879;28;87294;-64
2022/08/13 16:54:38;;;;;;;4.43;3.50;;;22.70;94.00;;;;;;6232619;28;89403;-64
2022/08/13 16:57:45;;;;;;;3.75;3.45;;;22.70;94.00;;;;;;6232898;28;89054;-64
2022/08/13 17:00:48;;;;;;;3.38;3.10;;;22.70;94.00;;;;;;6230976;28;90271;-64
2022/08/13 17:10:41;;;;;;;3.45;3.15;;;22.70;94.40;;;;;;6229996;28;87841;-63
2022/08/13 17:13:43;;;;;;;5.95;3.58;;;22.70;94.60;;;;;;6237540;28;89003;-63
2022/08/13 17:16:48;;;;;;;7.35;4.13;;;22.70;95.50;;;;;;6235251;28;88355;-64
2022/08/13 17:19:51;;;;;;;6.57;3.75;;;22.70;97.90;;;;;;6234142;28;89074;-64
2022/08/13 17:22:52;;;;;;;6.80;3.90;;;22.80;98.00;;;;;;6234103;28;88545;-63
2022/08/13 17:25:55;;;;;;;8.55;3.78;;;22.80;97.70;;;;;;6231614;28;89434;-64
2022/08/13 17:28:58;;;;;;;5.07;3.60;;;22.90;97.90;;;;;;6232497;28;89246;-64
2022/08/13 17:32:02;;;;;;;8.98;3.67;;;22.80;97.90;;;;;;6231444;28;90107;-66
2022/08/13 17:35:04;;;;;;;8.85;3.80;;;22.90;97.80;;;;;;6229792;28;89195;-63
2022/08/13 17:38:06;;;;;;;7.35;3.70;;;22.90;99.50;;;;;;6230548;28;89097;-63
2022/08/13 17:41:08;;;;;;;8.15;3.97;;;22.90;99.70;;;;;;6231826;28;88924;-63
2022/08/13 17:44:13;;;;;;;7.53;3.88;;;22.90;99.90;;;;;;6232761;28;89109;-63
2022/08/13 17:47:17;;;;;;;9.85;4.60;;;22.90;99.90;;;;;;6233098;28;90621;-64
2022/08/13 17:50:19;;;;;;;15.88;5.90;;;22.90;99.90;;;;;;6232332;28;89106;-67
2022/08/13 17:53:22;;;;;;;18.35;6.45;;;22.90;99.90;;;;;;6232168;28;88403;-66
2022/08/13 17:56:24;;;;;;;14.15;5.93;;;22.90;99.90;;;;;;6231362;28;89082;-67
2022/08/13 17:59:26;;;;;;;14.95;6.25;;;22.90;99.90;;;;;;6231868;28;89077;-66
2022/08/13 18:02:30;;;;;;;20.30;7.70;;;22.90;99.90;;;;;;6231388;28;90004;-66
2022/08/13 18:05:32;;;;;;;20.20;7.40;;;22.90;99.90;;;;;;6231288;28;88996;-66
2022/08/13 18:08:36;;;;;;;18.63;7.47;;;22.90;99.90;;;;;;6231131;28;89486;-66
2022/08/13 18:11:40;;;;;;;20.95;7.07;;;22.90;99.90;;;;;;6232123;28;89177;-66
2022/08/13 18:14:42;;;;;;;19.30;7.30;;;22.90;99.90;;;;;;6231379;28;87921;-66
2022/08/13 18:17:45;;;;;;;16.30;7.03;;;22.90;99.90;;;;;;6230649;28;89027;-65
2022/08/13 18:20:47;;;;;;;14.40;6.80;;;22.90;99.90;;;;;;6230849;28;88019;-66
2022/08/13 18:23:50;;;;;;;15.88;7.80;;;23.00;99.90;;;;;;6227249;28;87166;-66
2022/08/13 18:26:53;;;;;;;21.05;9.10;;;23.00;99.90;;;;;;6223446;28;89229;-66
2022/08/13 18:29:55;;;;;;;23.65;9.77;;;23.00;99.90;;;;;;6232164;28;87704;-66
2022/08/13 18:32:59;;;;;;;27.23;10.85;;;22.90;99.90;;;;;;6230269;28;89925;-66
2022/08/13 18:36:01;;;;;;;22.95;9.50;;;23.00;99.90;;;;;;6230332;28;89379;-66
2022/08/13 18:39:03;;;;;;;18.65;8.63;;;23.00;99.90;;;;;;6231300;28;89491;-66
2022/08/13 18:42:06;;;;;;;13.20;6.95;;;23.00;99.90;;;;;;6229764;28;89002;-66
2022/08/13 18:45:10;;;;;;;14.40;6.70;;;23.00;99.90;;;;;;6227370;28;89060;-66
2022/08/13 18:48:14;;;;;;;12.15;6.28;;;23.00;99.90;;;;;;6228322;28;89394;-66
2022/08/13 18:51:16;;;;;;;13.25;6.13;;;23.10;99.90;;;;;;6225690;28;89036;-66
2022/08/13 18:54:18;;;;;;;11.00;5.80;;;23.10;99.90;;;;;;6231176;28;87223;-66
2022/08/13 18:57:20;;;;;;;8.43;5.78;;;23.10;99.90;;;;;;6230858;28;89550;-66
2022/08/13 19:00:24;;;;;;;9.50;5.80;;;23.10;99.90;;;;;;6230285;28;88019;-66
2022/08/13 19:03:27;;;;;;;8.57;5.78;;;23.10;99.90;;;;;;6223206;28;88881;-66
2022/08/13 19:06:34;;;;;;;9.43;5.20;;;23.10;99.90;;;;;;6228934;28;89015;-66
2022/08/13 19:09:37;;;;;;;10.82;6.07;;;23.10;99.90;;;;;;6227458;28;90075;-68
2022/08/13 19:12:39;;;;;;;6.65;4.88;;;23.10;99.90;;;;;;6224567;28;89499;-68
2022/08/13 19:15:41;;;;;;;7.53;4.97;;;23.00;99.90;;;;;;6222370;28;89471;-67
2022/08/13 19:18:45;;;;;;;5.55;4.78;;;23.00;99.80;;;;;;6228364;28;89071;-67
2022/08/13 19:21:47;;;;;;;6.18;4.72;;;23.10;99.30;;;;;;6226846;28;88716;-67
2022/08/13 19:24:50;;;;;;;7.30;4.70;;;23.10;99.40;;;;;;6214312;28;88307;-67
2022/08/13 19:27:54;;;;;;;5.82;4.70;;;23.00;99.20;;;;;;6227679;28;89204;-67
2022/08/13 19:30:56;;;;;;;5.85;4.45;;;23.10;99.00;;;;;;6214941;28;89260;-67
2022/08/13 19:33:59;;;;;;;6.22;4.75;;;23.00;98.90;;;;;;6226578;28;88838;-67
2022/08/13 19:37:06;;;;;;;5.35;4.85;;;23.00;98.80;;;;;;6227046;28;89062;-67
2022/08/13 19:40:09;;;;;;;5.13;4.63;;;23.00;98.80;;;;;;6230446;28;89070;-68
2022/08/13 19:43:11;;;;;;;5.20;4.70;;;23.00;98.60;;;;;;6230744;28;89050;-67
2022/08/13 19:46:17;;;;;;;5.75;5.07;;;23.00;98.50;;;;;;6229812;28;89064;-67
2022/08/13 19:49:20;;;;;;;5.03;4.57;;;23.00;98.30;;;;;;6231363;28;89278;-67
2022/08/13 19:52:23;;;;;;;5.22;4.72;;;23.00;98.20;;;;;;6232060;28;89672;-67
2022/08/13 19:55:25;;;;;;;5.38;4.80;;;23.00;98.20;;;;;;6232212;28;88805;-67
2022/08/13 19:58:28;;;;;;;5.25;4.75;;;23.00;98.20;;;;;;6232443;28;89046;-68
2022/08/13 20:01:31;;;;;;;4.70;4.30;;;23.00;98.30;;;;;;6232047;28;89090;-67
2022/08/13 20:04:34;;;;;;;5.82;4.97;;;23.00;98.30;;;;;;6231299;28;90420;-67
2022/08/13 20:07:37;;;;;;;5.28;4.78;;;23.00;98.40;;;;;;6230232;28;89193;-67
2022/08/13 20:10:39;;;;;;;5.63;5.13;;;23.00;98.90;;;;;;6231242;28;89095;-68
2022/08/13 20:13:41;;;;;;;6.47;5.10;;;23.00;98.90;;;;;;6231347;28;88914;-67
2022/08/13 20:16:46;;;;;;;5.95;5.40;;;23.00;98.80;;;;;;6230524;28;89072;-67
2022/08/13 20:19:50;;;;;;;5.75;5.25;;;23.00;98.60;;;;;;6225391;28;89292;-67
2022/08/13 20:22:53;;;;;;;5.63;5.05;;;23.00;98.40;;;;;;6230338;28;89077;-67
2022/08/13 20:25:56;;;;;;;5.30;4.82;;;23.00;97.40;;;;;;6234449;28;88392;-68
2022/08/13 20:28:59;;;;;;;5.05;4.55;;;23.00;97.30;;;;;;6234295;28;88556;-66
2022/08/13 20:32:01;;;;;;;4.82;4.43;;;23.00;97.10;;;;;;6233656;28;89050;-67
2022/08/13 20:35:07;;;;;;;6.00;4.82;;;23.00;97.30;;;;;;6231661;28;89972;-67
2022/08/13 20:38:09;;;;;;;4.97;4.57;;;23.00;96.70;;;;;;6233729;28;89111;-67
2022/08/13 20:41:11;;;;;;;5.70;5.20;;;23.00;96.40;;;;;;6232092;28;88385;-67
2022/08/13 20:44:15;;;;;;;5.80;5.20;;;23.00;95.90;;;;;;6232039;28;89091;-67
2022/08/13 20:47:17;;;;;;;6.15;5.47;;;23.00;95.60;;;;;;6226869;28;88248;-66
2022/08/13 20:50:21;;;;;;;6.03;5.53;;;23.00;99.90;;;;;;6233236;28;89144;-66
2022/08/13 20:53:23;;;;;;;6.22;5.72;;;23.00;99.90;;;;;;6233198;28;89095;-66
2022/08/13 20:56:25;;;;;;;6.07;5.57;;;23.00;99.10;;;;;;6233704;28;88440;-66
2022/08/13 20:59:27;;;;;;;6.10;5.60;;;23.10;98.80;;;;;;6233280;28;89056;-66
2022/08/13 21:02:29;;;;;;;6.57;5.97;;;23.10;98.40;;;;;;6232550;28;89041;-66
2022/08/13 21:05:33;;;;;;;5.95;5.43;;;23.10;98.00;;;;;;6232614;28;90024;-67
2022/08/13 21:08:35;;;;;;;6.80;5.75;;;23.10;97.70;;;;;;6233143;28;88197;-66
2022/08/13 21:11:37;;;;;;;5.90;5.40;;;23.10;97.20;;;;;;6233384;28;87812;-66
2022/08/13 21:14:39;;;;;;;7.43;5.78;;;23.10;97.10;;;;;;6232578;28;89049;-67
2022/08/13 21:17:41;;;;;;;5.80;5.30;;;23.00;97.00;;;;;;6232290;28;89046;-66
2022/08/13 21:20:45;;;;;;;5.90;5.40;;;23.00;96.80;;;;;;6231893;28;89224;-67
2022/08/13 21:23:47;;;;;;;7.53;5.68;;;23.00;96.60;;;;;;6223827;28;87977;-66
2022/08/13 21:26:49;;;;;;;7.13;5.18;;;23.00;96.40;;;;;;6220221;28;88337;-67
2022/08/13 21:29:51;;;;;;;6.45;5.50;;;23.00;96.20;;;;;;6219632;28;88013;-66
2022/08/13 21:32:54;;;;;;;6.60;5.10;;;23.00;96.10;;;;;;6231586;28;89416;-67
2022/08/13 21:35:58;;;;;;;6.95;5.32;;;23.00;95.90;;;;;;6231631;28;90336;-66
2022/08/13 21:39:00;;;;;;;5.47;4.97;;;23.00;95.80;;;;;;6222300;28;88023;-67
2022/08/13 21:42:02;;;;;;;5.80;5.30;;;23.00;95.90;;;;;;6232444;28;89038;-67
2022/08/13 21:45:05;;;;;;;5.55;5.00;;;23.00;96.10;;;;;;6232344;28;89053;-66
2022/08/13 21:48:07;;;;;;;5.65;5.15;;;23.00;96.10;;;;;;6231953;28;89057;-67
2022/08/13 21:51:10;;;;;;;5.85;5.35;;;23.00;96.50;;;;;;6231057;28;89077;-66
2022/08/13 21:54:13;;;;;;;6.05;5.22;;;23.00;96.40;;;;;;6231417;28;89178;-67
2022/08/13 21:57:15;;;;;;;5.82;5.22;;;22.90;96.50;;;;;;6232529;28;88523;-67
2022/08/13 22:00:20;;;;;;;6.32;5.72;;;22.90;96.80;;;;;;6231933;28;89101;-67
2022/08/13 22:03:25;;;;;;;5.63;5.13;;;22.90;96.80;;;;;;6231250;28;89499;-66
2022/08/13 22:06:30;;;;;;;5.90;5.40;;;22.90;96.90;;;;;;6222877;28;88853;-67
2022/08/13 22:09:32;;;;;;;5.82;5.30;;;22.90;96.60;;;;;;6228550;28;89038;-67
2022/08/13 22:12:34;;;;;;;5.85;5.35;;;22.90;96.70;;;;;;6221180;28;89122;-67
2022/08/13 22:15:37;;;;;;;5.85;5.38;;;22.90;96.30;;;;;;6231849;28;89166;-66
2022/08/13 22:18:39;;;;;;;5.95;5.35;;;22.90;96.40;;;;;;6231563;28;89066;-66
2022/08/13 22:21:43;;;;;;;6.18;5.50;;;22.90;96.50;;;;;;6231502;28;90599;-66